createdAt,value
2022-07-25T00:03:39.157Z,100804.75
2022-07-25T00:08:38.842Z,100810.88
2022-07-25T00:13:37.630Z,100794.72
2022-07-25T00:18:37.840Z,100768.50
2022-07-25T00:23:36.705Z,100775.56
2022-07-25T00:28:35.778Z,100750.94
2022-07-25T00:33:40.568Z,100756.03
2022-07-25T00:38:41.987Z,100750.53
2022-07-25T00:43:45.442Z,100744.97
2022-07-25T00:48:44.732Z,100763.22
2022-07-25T00:53:52.442Z,100794.97
2022-07-25T00:58:52.078Z,100799.63
2022-07-25T01:03:51.884Z,100803.84
2022-07-25T01:08:52.747Z,100806.69
2022-07-25T01:13:54.839Z,100819.66
2022-07-25T01:18:54.272Z,100806.97
2022-07-25T01:23:57.516Z,100805.72
2022-07-25T01:28:57.189Z,100794.41
2022-07-25T01:33:56.423Z,100796.94
2022-07-25T01:38:56.934Z,100796.94
2022-07-25T01:43:56.039Z,100803.84
2022-07-25T01:48:55.396Z,100794.50
2022-07-25T01:53:54.522Z,100790.31
2022-07-25T01:58:54.808Z,100798.47
2022-07-25T02:03:54.699Z,100798.28
2022-07-25T02:08:55.764Z,100796.09
2022-07-25T02:13:56.318Z,100795.72
2022-07-25T02:18:57.305Z,100802.81
2022-07-25T02:23:56.589Z,100802.41
2022-07-25T02:28:57.725Z,100814.38
2022-07-25T02:33:57.334Z,100816.63
2022-07-25T02:38:57.606Z,100808.34
2022-07-25T02:44:00.610Z,100803.81
2022-07-25T02:49:02.801Z,100805.03
2022-07-25T02:54:03.198Z,100796.78
2022-07-25T02:59:07.840Z,100796.94
2022-07-25T03:04:12.714Z,100804.38
2022-07-25T03:09:15.421Z,100805.59
2022-07-25T03:14:17.739Z,100798.19
2022-07-25T03:19:17.809Z,100794.66
2022-07-25T03:24:21.553Z,100799.38
2022-07-25T03:29:27.679Z,100800.72
2022-07-25T03:34:29.844Z,100827.94
2022-07-25T03:39:30.882Z,100837.81
2022-07-25T03:44:40.620Z,100836.53
2022-07-25T03:49:46.929Z,100827.50
2022-07-25T03:55:00.635Z,100818.13
2022-07-25T04:00:12.832Z,100833.13
2022-07-25T04:05:14.759Z,100827.09
2022-07-25T04:10:17.103Z,100836.50
2022-07-25T04:15:18.372Z,100837.81
2022-07-25T04:20:17.478Z,100831.47
2022-07-25T04:25:19.703Z,100833.06
2022-07-25T04:30:24.726Z,100839.44
2022-07-25T04:35:24.235Z,100842.13
2022-07-25T04:40:22.988Z,100845.50
2022-07-25T04:45:23.698Z,100840.03
2022-07-25T04:50:24.968Z,100842.41
2022-07-25T04:55:24.187Z,100838.78
2022-07-25T05:00:25.018Z,100848.78
2022-07-25T05:05:23.842Z,100846.66
2022-07-25T05:10:22.566Z,100849.38
2022-07-25T05:15:21.513Z,100855.28
2022-07-25T05:20:21.783Z,100866.25
2022-07-25T05:25:20.989Z,100869.94
2022-07-25T05:30:19.765Z,100873.00
2022-07-25T05:35:18.560Z,100875.91
2022-07-25T05:40:19.538Z,100884.66
2022-07-25T05:45:18.281Z,100879.53
2022-07-25T05:50:17.002Z,100871.53
2022-07-25T05:55:16.080Z,100875.06
2022-07-25T06:00:17.043Z,100877.47
2022-07-25T06:05:15.846Z,100875.16
2022-07-25T06:10:16.651Z,100864.06
2022-07-25T06:15:19.763Z,100868.09
2022-07-25T06:20:22.105Z,100871.31
2022-07-25T06:25:20.964Z,100870.97
2022-07-25T06:30:21.164Z,100872.88
2022-07-25T06:35:20.324Z,100883.06
2022-07-25T06:40:19.128Z,100879.72
2022-07-25T06:45:17.961Z,100879.25
2022-07-25T06:50:21.427Z,100887.41
2022-07-25T06:55:20.441Z,100892.69
2022-07-25T07:00:19.630Z,100888.00
2022-07-25T07:05:20.613Z,100894.66
2022-07-25T07:10:23.994Z,100894.72
2022-07-25T07:15:22.839Z,100891.13
2022-07-25T07:20:23.305Z,100890.22
2022-07-25T07:25:24.239Z,100891.94
2022-07-25T07:30:52.172Z,100899.38
2022-07-25T07:35:47.744Z,100910.25
2022-07-25T07:40:46.505Z,100910.53
2022-07-25T07:45:45.680Z,100907.22
2022-07-25T07:50:44.603Z,100904.13
2022-07-25T07:55:45.486Z,100896.13
2022-07-25T08:00:44.907Z,100898.88
2022-07-25T08:05:45.651Z,100906.03
2022-07-25T08:10:48.000Z,100907.25
2022-07-25T08:15:51.889Z,100889.69
2022-07-25T08:20:51.360Z,100885.72
2022-07-25T08:25:59.011Z,100886.44
2022-07-25T08:30:59.872Z,100880.41
2022-07-25T08:35:59.794Z,100895.97
2022-07-25T08:41:00.142Z,100888.59
2022-07-25T08:46:01.456Z,100876.28
2022-07-25T08:51:01.676Z,100886.34
2022-07-25T08:56:05.369Z,100875.63
2022-07-25T09:01:09.238Z,100881.00
2022-07-25T09:06:21.886Z,100876.28
2022-07-25T09:11:30.485Z,100866.47
2022-07-25T09:16:33.910Z,100857.84
2022-07-25T09:21:32.819Z,100856.13
2022-07-25T09:26:32.987Z,100848.47
2022-07-25T09:31:35.143Z,100833.22
2022-07-25T09:36:35.634Z,100837.50
2022-07-25T09:41:40.613Z,100835.22
2022-07-25T09:46:39.534Z,100843.31
2022-07-25T09:51:38.508Z,100837.47
2022-07-25T09:56:38.550Z,100829.47
2022-07-25T10:01:41.441Z,100836.91
2022-07-25T10:06:46.307Z,100820.09
2022-07-25T10:12:10.153Z,100816.34
2022-07-25T10:17:10.538Z,100817.00
2022-07-25T10:22:15.085Z,100810.31
2022-07-25T10:27:22.311Z,100803.91
2022-07-25T10:32:21.405Z,100801.06
2022-07-25T10:37:21.306Z,100792.44
2022-07-25T10:42:26.792Z,100790.88
2022-07-25T10:47:28.309Z,100791.00
2022-07-25T10:52:29.923Z,100775.69
2022-07-25T10:57:32.276Z,100774.09
2022-07-25T11:02:32.907Z,100775.09
2022-07-25T11:07:36.191Z,100774.38
2022-07-25T11:12:37.558Z,100759.78
2022-07-25T11:17:36.323Z,100753.84
2022-07-25T11:22:35.913Z,100738.94
2022-07-25T11:27:36.866Z,100737.16
2022-07-25T11:32:40.481Z,100726.03
2022-07-25T11:37:41.708Z,100726.09
2022-07-25T11:42:44.070Z,100722.31
2022-07-25T11:47:43.081Z,100721.41
2022-07-25T11:52:46.063Z,100716.16
2022-07-25T11:57:49.227Z,100719.53
2022-07-25T12:02:49.578Z,100699.00
2022-07-25T12:07:51.520Z,100695.28
2022-07-25T12:12:54.799Z,100692.34
2022-07-25T12:17:55.590Z,100691.16
2022-07-25T12:23:00.377Z,100683.28
2022-07-25T12:28:10.738Z,100680.81
2022-07-25T12:33:14.913Z,100673.63
2022-07-25T12:38:14.499Z,100662.41
2022-07-25T12:43:14.673Z,100663.69
2022-07-25T12:48:14.901Z,100653.41
2022-07-25T12:53:14.655Z,100650.66
2022-07-25T12:58:15.289Z,100641.81
2022-07-25T13:03:15.513Z,100638.91
2022-07-25T13:08:14.225Z,100637.13
2022-07-25T13:13:14.789Z,100637.25
2022-07-25T13:18:13.516Z,100626.66
2022-07-25T13:23:13.642Z,100618.47
2022-07-25T13:28:17.029Z,100614.84
2022-07-25T13:33:15.767Z,100615.56
2022-07-25T13:38:15.068Z,100602.84
2022-07-25T13:43:16.103Z,100604.69
2022-07-25T13:48:30.915Z,100607.84
2022-07-25T13:53:30.930Z,100602.69
2022-07-25T13:58:31.258Z,100590.84
2022-07-25T14:03:30.682Z,100590.44
2022-07-25T14:08:29.381Z,100579.00
2022-07-25T14:13:28.079Z,100577.03
2022-07-25T14:18:28.186Z,100581.19
2022-07-25T14:23:30.076Z,100577.84
2022-07-25T14:28:29.036Z,100571.03
2022-07-25T14:33:29.244Z,100557.22
2022-07-25T14:38:28.053Z,100554.13
2022-07-25T14:43:26.885Z,100550.63
2022-07-25T14:48:25.752Z,100543.72
2022-07-25T14:53:26.017Z,100535.22
2022-07-25T14:58:25.445Z,100540.28
2022-07-25T15:03:24.227Z,100533.81
2022-07-25T15:08:26.659Z,100539.63
2022-07-25T15:13:32.938Z,100537.56
2022-07-25T15:18:32.213Z,100524.97
2022-07-25T15:23:32.337Z,100522.31
2022-07-25T15:28:31.395Z,100512.16
2022-07-25T15:33:30.665Z,100517.38
2022-07-25T15:38:30.943Z,100520.06
2022-07-25T15:43:31.214Z,100516.25
2022-07-25T15:48:30.124Z,100506.22
2022-07-25T15:53:30.445Z,100504.81
2022-07-25T15:58:30.674Z,100514.63
2022-07-25T16:03:29.824Z,100506.59
2022-07-25T16:08:28.695Z,100499.59
2022-07-25T16:13:28.228Z,100503.63
2022-07-25T16:18:28.480Z,100489.16
2022-07-25T16:23:28.355Z,100504.44
2022-07-25T16:28:27.684Z,100503.63
2022-07-25T16:33:28.195Z,100506.28
2022-07-25T16:38:27.645Z,100509.72
2022-07-25T16:43:31.454Z,100510.47
2022-07-25T16:48:35.257Z,100509.63
2022-07-25T16:53:35.893Z,100511.94
2022-07-25T16:58:35.086Z,100501.47
2022-07-25T17:03:35.643Z,100509.78
2022-07-25T17:08:35.274Z,100508.38
2022-07-25T17:13:34.171Z,100509.09
2022-07-25T17:18:33.025Z,100521.31
2022-07-25T17:23:35.842Z,100523.47
2022-07-25T17:28:38.120Z,100521.22
2022-07-25T17:33:37.251Z,100527.16
2022-07-25T17:38:38.168Z,100527.56
2022-07-25T17:43:37.134Z,100527.31
2022-07-25T17:48:36.354Z,100531.75
2022-07-25T17:53:35.245Z,100527.38
2022-07-25T17:58:35.655Z,100532.38
2022-07-25T18:03:34.502Z,100533.97
2022-07-25T18:08:35.452Z,100539.69
2022-07-25T18:13:36.136Z,100536.59
2022-07-25T18:18:37.467Z,100535.97
2022-07-25T18:23:36.273Z,100536.31
2022-07-25T18:28:36.964Z,100541.47
2022-07-25T18:33:37.869Z,100545.00
2022-07-25T18:38:37.342Z,100542.25
2022-07-25T18:43:37.823Z,100547.09
2022-07-25T18:48:37.431Z,100550.56
2022-07-25T18:53:37.013Z,100546.09
2022-07-25T18:58:37.759Z,100557.56
2022-07-25T19:03:39.943Z,100551.50
2022-07-25T19:08:39.375Z,100551.16
2022-07-25T19:13:50.007Z,100554.97
2022-07-25T19:18:49.781Z,100560.44
2022-07-25T19:23:51.225Z,100562.53
2022-07-25T19:28:51.902Z,100568.31
2022-07-25T19:33:50.765Z,100562.88
2022-07-25T19:38:49.736Z,100561.78
2022-07-25T19:43:48.582Z,100553.31
2022-07-25T19:48:48.897Z,100557.44
2022-07-25T19:53:47.508Z,100555.69
2022-07-25T19:58:46.481Z,100552.72
2022-07-25T20:03:45.431Z,100556.03
2022-07-25T20:08:45.670Z,100553.38
2022-07-25T20:13:44.517Z,100552.25
2022-07-25T20:18:43.437Z,100557.28
2022-07-25T20:23:51.814Z,100558.34
2022-07-25T20:28:50.814Z,100563.66
2022-07-25T20:33:50.463Z,100566.47
2022-07-25T20:38:50.955Z,100562.13
2022-07-25T20:43:49.562Z,100564.09
2022-07-25T20:48:48.326Z,100562.47
2022-07-25T20:53:51.691Z,100572.22
2022-07-25T20:58:53.878Z,100573.16
2022-07-25T21:03:52.761Z,100581.00
2022-07-25T21:08:51.628Z,100579.63
2022-07-25T21:13:51.204Z,100576.91
2022-07-25T21:18:51.393Z,100573.63
2022-07-25T21:23:50.302Z,100578.47
2022-07-25T21:28:49.107Z,100578.50
2022-07-25T21:33:50.471Z,100563.50
2022-07-25T21:38:50.691Z,100569.38
2022-07-25T21:43:49.677Z,100576.31
2022-07-25T21:49:06.020Z,100562.72
2022-07-25T21:54:07.157Z,100561.72
2022-07-25T21:59:06.888Z,100562.34
2022-07-25T22:04:06.771Z,100569.06
2022-07-25T22:09:08.208Z,100563.03
2022-07-25T22:14:08.973Z,100563.09
2022-07-25T22:19:08.304Z,100554.72
2022-07-25T22:24:09.394Z,100551.00
2022-07-25T22:29:08.283Z,100553.25
2022-07-25T22:34:07.384Z,100543.41
2022-07-25T22:39:06.488Z,100542.41
2022-07-25T22:44:07.126Z,100540.41
2022-07-25T22:49:06.800Z,100540.81
2022-07-25T22:54:06.440Z,100536.22
2022-07-25T22:59:06.980Z,100534.72
2022-07-25T23:04:06.273Z,100532.69
2022-07-25T23:09:05.549Z,100532.88
2022-07-25T23:14:04.640Z,100525.13
2022-07-25T23:19:05.058Z,100515.94
2022-07-25T23:24:04.119Z,100521.38
2022-07-25T23:29:02.964Z,100516.19
2022-07-25T23:34:01.823Z,100520.13
2022-07-25T23:39:02.052Z,100516.41
2022-07-25T23:44:00.976Z,100519.13
2022-07-25T23:49:01.061Z,100516.22
2022-07-25T23:54:03.652Z,100515.56
2022-07-25T23:59:02.563Z,100525.16
